Time,TemperatureF,DewpointF,PressureIn,WindDirection,WindDirectionDegrees,WindSpeedMPH,WindSpeedGustMPH,Humidity,HourlyPrecipIn,Conditions,Clouds,dailyrainin,SoftwareType,DateUTC
2013-03-21 00:26:00,37.6,35.0,30.00,WSW,256,0.0,4.0,89,0.00,,,0.00,weatherlink.com 1.10,2013-03-21 07:26:00,
2013-03-21 00:41:00,37.5,35.0,30.00,SE,137,0.0,3.0,90,0.00,,,0.00,weatherlink.com 1.10,2013-03-21 07:41:00,
2013-03-21 00:56:00,37.2,35.0,30.00,ENE,72,0.0,4.0,90,0.00,,,0.00,weatherlink.com 1.10,2013-03-21 07:56:00,
2013-03-21 01:11:00,37.1,35.0,30.02,NE,43,5.0,5.0,90,0.00,,,0.00,weatherlink.com 1.10,2013-03-21 08:11:00,
2013-03-21 01:26:00,37.3,34.0,30.02,WSW,245,0.0,5.0,89,0.00,,,0.00,weatherlink.com 1.10,2013-03-21 08:26:00,
2013-03-21 01:41:00,37.3,34.0,30.03,ESE,121,0.0,3.0,89,0.00,,,0.00,weatherlink.com 1.10,2013-03-21 08:41:00,
2013-03-21 01:56:00,37.3,34.0,30.04,SE,131,0.0,4.0,89,0.00,,,0.00,weatherlink.com 1.10,2013-03-21 08:56:00,
2013-03-21 02:11:00,37.1,35.0,30.04,SW,228,0.0,3.0,90,0.00,,,0.00,weatherlink.com 1.10,2013-03-21 09:11:00,
2013-03-21 02:26:00,36.8,35.0,30.05,SE,140,0.0,3.0,91,0.00,,,0.00,weatherlink.com 1.10,2013-03-21 09:26:00,
2013-03-21 02:41:00,36.6,35.0,30.05,SSW,211,0.0,2.0,92,0.00,,,0.00,weatherlink.com 1.10,2013-03-21 09:41:00,
2013-03-21 02:56:00,36.9,35.0,30.06,WSW,240,1.0,7.0,91,0.00,,,0.00,weatherlink.com 1.10,2013-03-21 09:56:00,
2013-03-21 03:11:00,37.1,35.0,30.06,East,90,0.0,2.0,91,0.00,,,0.00,weatherlink.com 1.10,2013-03-21 10:11:00,
2013-03-21 03:26:00,37.1,35.0,30.07,WSW,246,0.0,1.0,91,0.00,,,0.00,weatherlink.com 1.10,2013-03-21 10:26:00,
2013-03-21 03:42:00,36.5,34.0,30.07,SW,232,0.0,3.0,92,0.00,,,0.00,weatherlink.com 1.10,2013-03-21 10:42:00,
2013-03-21 03:56:00,36.1,34.0,30.07,ESE,112,0.0,2.0,92,0.00,,,0.00,weatherlink.com 1.10,2013-03-21 10:56:00,
2013-03-21 04:11:00,36.6,35.0,30.08,South,184,0.0,3.0,92,0.00,,,0.00,weatherlink.com 1.10,2013-03-21 11:11:00,
2013-03-21 04:26:00,36.7,35.0,30.08,WSW,245,0.0,4.0,92,0.00,,,0.00,weatherlink.com 1.10,2013-03-21 11:26:00,
2013-03-21 04:41:00,36.7,35.0,30.08,WSW,245,1.0,3.0,92,0.00,,,0.00,weatherlink.com 1.10,2013-03-21 11:41:00,
2013-03-21 04:56:00,36.7,35.0,30.08,West,263,0.0,1.0,92,0.00,,,0.00,weatherlink.com 1.10,2013-03-21 11:56:00,
2013-03-21 05:12:00,36.6,35.0,30.09,SE,127,0.0,5.0,92,0.00,,,0.00,weatherlink.com 1.10,2013-03-21 12:12:00,
2013-03-21 05:27:00,36.7,35.0,30.09,SSE,150,0.0,-999.0,92,-99.99,,,0.00,weatherlink.com 1.10,2013-03-21 12:27:00,
2013-03-21 05:42:00,36.7,35.0,30.10,SSE,152,0.0,3.0,92,0.00,,,0.00,weatherlink.com 1.10,2013-03-21 12:42:00,
2013-03-21 05:57:00,36.7,35.0,30.11,SSW,205,0.0,1.0,92,0.00,,,0.00,weatherlink.com 1.10,2013-03-21 12:57:00,
2013-03-21 06:12:00,36.7,35.0,30.11,SW,224,0.0,5.0,92,0.00,,,0.00,weatherlink.com 1.10,2013-03-21 13:12:00,
2013-03-21 06:27:00,36.5,34.0,30.11,SW,229,0.0,3.0,92,0.00,,,0.00,weatherlink.com 1.10,2013-03-21 13:27:00,
2013-03-21 06:42:00,35.9,34.0,30.11,SW,236,0.0,1.0,93,0.00,,,0.00,weatherlink.com 1.10,2013-03-21 13:42:00,
2013-03-21 06:57:00,35.9,34.0,30.11,West,263,0.0,3.0,94,0.00,,,0.00,weatherlink.com 1.10,2013-03-21 13:57:00,
2013-03-21 07:12:00,35.7,34.0,30.11,NW,326,1.0,2.0,94,0.00,,,0.00,weatherlink.com 1.10,2013-03-21 14:12:00,
2013-03-21 07:27:00,35.5,34.0,30.11,SW,221,2.0,3.0,94,0.00,,,0.00,weatherlink.com 1.10,2013-03-21 14:27:00,
2013-03-21 07:42:00,35.4,34.0,30.12,SSE,159,0.0,1.0,94,0.00,,,0.00,weatherlink.com 1.10,2013-03-21 14:42:00,
2013-03-21 07:57:00,35.7,34.0,30.12,SSE,161,1.0,2.0,95,0.00,,,0.00,weatherlink.com 1.10,2013-03-21 14:57:00,
2013-03-21 08:12:00,36.7,35.0,30.12,SSW,200,0.0,1.0,94,0.00,,,0.00,weatherlink.com 1.10,2013-03-21 15:12:00,
2013-03-21 08:27:00,38.5,36.0,30.13,South,188,3.0,4.0,91,0.00,,,0.00,weatherlink.com 1.10,2013-03-21 15:27:00,
2013-03-21 08:42:00,39.4,36.0,30.13,SW,235,1.0,8.0,88,0.00,,,0.00,weatherlink.com 1.10,2013-03-21 15:42:00,
2013-03-21 08:57:00,40.2,37.0,30.13,NE,55,0.0,4.0,87,0.00,,,0.00,weatherlink.com 1.10,2013-03-21 15:57:00,
2013-03-21 09:12:00,41.1,37.0,30.13,WSW,248,0.0,8.0,85,0.00,,,0.00,weatherlink.com 1.10,2013-03-21 16:12:00,
2013-03-21 09:27:00,41.9,37.0,30.14,WSW,243,0.0,5.0,83,0.00,,,0.00,weatherlink.com 1.10,2013-03-21 16:27:00,
2013-03-21 09:42:00,42.0,37.0,30.14,East,100,0.0,5.0,83,0.00,,,0.00,weatherlink.com 1.10,2013-03-21 16:42:00,
2013-03-21 09:57:00,43.2,37.0,30.14,WSW,256,0.0,6.0,80,0.00,,,0.00,weatherlink.com 1.10,2013-03-21 16:57:00,
2013-03-21 10:12:00,44.1,38.0,30.15,WSW,253,0.0,7.0,78,0.00,,,0.00,weatherlink.com 1.10,2013-03-21 17:12:00,
2013-03-21 10:27:00,44.5,37.0,30.15,NE,34,0.0,5.0,75,0.00,,,0.00,weatherlink.com 1.10,2013-03-21 17:27:00,
2013-03-21 10:57:00,45.9,37.0,30.16,SE,131,1.0,5.0,70,0.00,,,0.00,weatherlink.com 1.10,2013-03-21 17:57:00,
2013-03-21 11:12:00,46.5,36.0,30.15,WSW,240,1.0,7.0,68,0.00,,,0.00,weatherlink.com 1.10,2013-03-21 18:12:00,
2013-03-21 11:27:00,46.9,36.0,30.15,SE,142,0.0,6.0,67,0.00,,,0.00,weatherlink.com 1.10,2013-03-21 18:27:00,
2013-03-21 11:42:00,47.5,36.0,30.15,SSE,161,4.0,6.0,64,0.00,,,0.00,weatherlink.com 1.10,2013-03-21 18:42:00,
2013-03-21 11:58:00,48.8,35.0,30.15,WSW,248,4.0,10.0,60,0.00,,,0.00,weatherlink.com 1.10,2013-03-21 18:58:00,
2013-03-21 12:13:00,49.9,35.0,30.15,SW,214,0.0,10.0,57,0.00,,,0.00,weatherlink.com 1.10,2013-03-21 19:13:00,
2013-03-21 12:28:00,48.6,35.0,30.14,SW,225,1.0,8.0,60,0.00,,,0.00,weatherlink.com 1.10,2013-03-21 19:28:00,
2013-03-21 12:43:00,47.2,33.0,30.14,SE,133,0.0,6.0,58,0.00,,,0.00,weatherlink.com 1.10,2013-03-21 19:43:00,
2013-03-21 12:58:00,45.7,36.0,30.14,SSW,211,0.0,5.0,69,0.00,,,0.00,weatherlink.com 1.10,2013-03-21 19:58:00,
2013-03-21 13:13:00,44.0,35.0,30.14,East,82,1.0,7.0,72,0.02,,,0.02,weatherlink.com 1.10,2013-03-21 20:13:00,
2013-03-21 13:28:00,44.0,36.0,30.14,SSE,158,1.0,4.0,74,0.02,,,0.02,weatherlink.com 1.10,2013-03-21 20:28:00,
2013-03-21 13:43:00,44.3,38.0,30.13,NNE,33,0.0,1.0,78,0.03,,,0.03,weatherlink.com 1.10,2013-03-21 20:43:00,
2013-03-21 13:58:00,44.3,39.0,30.13,SSE,167,0.0,3.0,80,0.03,,,0.03,weatherlink.com 1.10,2013-03-21 20:58:00,
2013-03-21 14:13:00,43.6,38.0,30.13,East,97,0.0,8.0,79,0.02,,,0.04,weatherlink.com 1.10,2013-03-21 21:13:00,
2013-03-21 14:28:00,44.4,38.0,30.12,East,85,1.0,5.0,77,0.02,,,0.04,weatherlink.com 1.10,2013-03-21 21:28:00,
2013-03-21 14:43:00,46.3,38.0,30.12,North,11,2.0,3.0,72,0.01,,,0.04,weatherlink.com 1.10,2013-03-21 21:43:00,
2013-03-21 14:58:00,46.5,39.0,30.11,NW,308,1.0,7.0,74,0.01,,,0.04,weatherlink.com 1.10,2013-03-21 21:58:00,
2013-03-21 15:13:00,47.6,40.0,30.12,NNE,30,8.0,9.0,75,0.00,,,0.04,weatherlink.com 1.10,2013-03-21 22:13:00,
2013-03-21 15:28:00,46.1,38.0,30.12,NE,56,4.0,10.0,73,0.00,,,0.04,weatherlink.com 1.10,2013-03-21 22:28:00,
2013-03-21 15:43:00,45.5,37.0,30.12,NE,53,6.0,9.0,73,0.00,,,0.04,weatherlink.com 1.10,2013-03-21 22:43:00,
2013-03-21 15:58:00,45.4,38.0,30.12,NW,325,3.0,8.0,74,0.00,,,0.04,weatherlink.com 1.10,2013-03-21 22:58:00,
2013-03-21 16:13:00,45.0,37.0,30.12,NNW,330,3.0,8.0,74,0.00,,,0.04,weatherlink.com 1.10,2013-03-21 23:13:00,
2013-03-21 16:28:00,44.6,37.0,30.13,NE,34,6.0,7.0,75,0.00,,,0.04,weatherlink.com 1.10,2013-03-21 23:28:00,
2013-03-21 16:43:00,44.1,38.0,30.13,NNE,32,2.0,5.0,78,0.00,,,0.04,weatherlink.com 1.10,2013-03-21 23:43:00,
2013-03-21 16:58:00,44.0,38.0,30.14,North,1,4.0,6.0,79,0.00,,,0.04,weatherlink.com 1.10,2013-03-21 23:58:00,
2013-03-21 17:13:00,43.7,38.0,30.14,NE,51,5.0,6.0,79,0.00,,,0.04,weatherlink.com 1.10,2013-03-22 00:13:00,
2013-03-21 17:28:00,43.3,37.0,30.14,NE,41,2.0,4.0,78,0.00,,,0.04,weatherlink.com 1.10,2013-03-22 00:28:00,
2013-03-21 17:43:00,43.1,37.0,30.13,NE,56,7.0,8.0,79,0.00,,,0.04,weatherlink.com 1.10,2013-03-22 00:43:00,
2013-03-21 17:58:00,42.5,37.0,30.14,NE,36,6.0,8.0,81,0.00,,,0.04,weatherlink.com 1.10,2013-03-22 00:58:00,
2013-03-21 18:13:00,39.1,36.0,30.14,NE,44,2.0,6.0,88,0.02,,,0.06,weatherlink.com 1.10,2013-03-22 01:13:00,
2013-03-21 18:28:00,37.8,36.0,30.14,ENE,71,0.0,5.0,92,0.05,,,0.09,weatherlink.com 1.10,2013-03-22 01:28:00,
2013-03-21 18:43:00,37.5,36.0,30.14,WSW,238,0.0,1.0,93,0.06,,,0.10,weatherlink.com 1.10,2013-03-22 01:43:00,
2013-03-21 19:13:00,37.3,36.0,30.15,WSW,240,0.0,1.0,95,0.05,,,0.11,weatherlink.com 1.10,2013-03-22 02:13:00,
2013-03-21 19:28:00,37.4,36.0,30.15,SSW,205,0.0,1.0,95,0.02,,,0.11,weatherlink.com 1.10,2013-03-22 02:28:00,
2013-03-21 19:43:00,36.3,35.0,30.15,SSW,213,0.0,1.0,95,0.02,,,0.12,weatherlink.com 1.10,2013-03-22 02:43:00,
2013-03-21 19:58:00,36.2,35.0,30.16,SE,133,0.0,1.0,96,0.04,,,0.14,weatherlink.com 1.10,2013-03-22 02:58:00,
2013-03-21 20:13:00,36.5,36.0,30.16,SSE,163,1.0,2.0,97,0.05,,,0.16,weatherlink.com 1.10,2013-03-22 03:13:00,
2013-03-21 20:28:00,36.5,36.0,30.16,ESE,112,0.0,2.0,97,0.05,,,0.16,weatherlink.com 1.10,2013-03-22 03:28:00,
2013-03-21 20:43:00,36.8,36.0,30.17,SSW,200,0.0,1.0,97,0.04,,,0.17,weatherlink.com 1.10,2013-03-22 03:43:00,
2013-03-21 20:58:00,36.9,36.0,30.18,SE,139,0.0,1.0,97,0.03,,,0.17,weatherlink.com 1.10,2013-03-22 03:58:00,
2013-03-21 21:13:00,37.0,36.0,30.18,SSW,200,0.0,1.0,97,0.02,,,0.18,weatherlink.com 1.10,2013-03-22 04:13:00,
2013-03-21 21:28:00,37.3,37.0,30.18,SSE,150,0.0,1.0,97,0.02,,,0.18,weatherlink.com 1.10,2013-03-22 04:28:00,
2013-03-21 21:43:00,37.4,37.0,30.19,South,188,0.0,1.0,97,0.02,,,0.19,weatherlink.com 1.10,2013-03-22 04:43:00,
2013-03-21 21:58:00,37.3,37.0,30.18,SE,142,1.0,5.0,97,0.02,,,0.19,weatherlink.com 1.10,2013-03-22 04:58:00,
2013-03-21 22:13:00,36.9,36.0,30.19,SSW,211,0.0,1.0,97,0.01,,,0.19,weatherlink.com 1.10,2013-03-22 05:13:00,
2013-03-21 22:28:00,36.2,36.0,30.19,SSW,198,0.0,1.0,97,0.00,,,0.19,weatherlink.com 1.10,2013-03-22 05:28:00,
2013-03-21 22:43:00,35.3,35.0,30.19,ESE,107,0.0,0.0,97,0.00,,,0.19,weatherlink.com 1.10,2013-03-22 05:43:00,
2013-03-21 22:58:00,35.3,35.0,30.19,SW,229,0.0,0.0,97,0.01,,,0.20,weatherlink.com 1.10,2013-03-22 05:58:00,
2013-03-21 23:13:00,35.0,35.0,30.20,SW,229,0.0,0.0,98,0.01,,,0.20,weatherlink.com 1.10,2013-03-22 06:13:00,
2013-03-21 23:28:00,34.6,34.0,30.20,SW,229,0.0,0.0,98,0.01,,,0.20,weatherlink.com 1.10,2013-03-22 06:28:00,
2013-03-21 23:43:00,35.0,35.0,30.20,WSW,257,0.0,1.0,98,0.01,,,0.20,weatherlink.com 1.10,2013-03-22 06:43:00,
2013-03-21 23:58:00,34.3,34.0,30.20,WSW,252,0.0,0.0,98,0.00,,,0.20,weatherlink.com 1.10,2013-03-22 06:58:00,